Time;durP1;ratioP1;P1;durP2;ratioP2;P2;SDS_P1;SDS_P2;PMS_P1;PMS_P2;Temp;Humidity;BMP_temperature;BMP_pressure;BME280_temperature;BME280_humidity;BME280_pressure;Samples;Min_cycle;Max_cycle;Signal;HPM_P1;HPM_P2
2024/01/10 00:01:06;;;;;;;1.27;1.10;;;;;;;3.84;32.44;103292.56;5052083;28;20028;-69
2024/01/10 00:03:32;;;;;;;1.17;0.90;;;;;;;2.98;33.89;103285.81;5047713;28;20049;-69
2024/01/10 00:05:57;;;;;;;0.97;0.73;;;;;;;3.59;32.71;103285.09;5040691;28;20063;-69
2024/01/10 00:08:23;;;;;;;3.40;1.53;;;;;;;3.12;33.96;103282.38;5051500;28;20484;-69
2024/01/10 00:10:48;;;;;;;2.47;1.03;;;;;;;2.95;34.44;103280.47;5052418;28;20345;-69
2024/01/10 00:13:13;;;;;;;1.13;1.03;;;;;;;3.50;33.70;103276.00;5051092;28;20665;-69
2024/01/10 00:15:39;;;;;;;3.17;1.73;;;;;;;3.73;33.26;103269.53;5051493;28;20063;-69
2024/01/10 00:18:04;;;;;;;2.37;1.10;;;;;;;3.17;34.35;103270.63;5051265;28;20047;-69
2024/01/10 00:20:29;;;;;;;2.07;1.00;;;;;;;3.03;34.56;103276.66;5050211;28;20108;-69
2024/01/10 00:22:55;;;;;;;2.30;1.23;;;;;;;3.04;34.97;103256.06;5051538;28;20040;-69
2024/01/10 00:25:20;;;;;;;1.47;1.30;;;;;;;3.38;34.49;103254.59;5052742;28;20028;-69
2024/01/10 00:27:45;;;;;;;3.13;1.90;;;;;;;3.70;33.93;103252.97;5049965;28;20120;-69
2024/01/10 00:30:11;;;;;;;1.57;1.17;;;;;;;3.47;34.18;103256.81;5051373;28;20506;-69
2024/01/10 00:32:36;;;;;;;1.23;0.90;;;;;;;3.57;34.08;103251.34;5050784;28;20021;-69
2024/01/10 00:35:02;;;;;;;3.60;1.30;;;;;;;4.07;33.93;103252.44;5050482;28;20111;-69
2024/01/10 00:37:31;;;;;;;1.40;0.97;;;;;;;3.39;34.36;103261.53;5050909;28;20017;-70
2024/01/10 00:39:56;;;;;;;0.97;0.80;;;;;;;3.24;35.18;103261.50;5052808;28;20294;-69
2024/01/10 00:42:22;;;;;;;4.37;2.07;;;;;;;3.48;34.88;103268.94;5051860;28;20275;-69
2024/01/10 00:44:47;;;;;;;2.17;1.57;;;;;;;3.81;35.22;103254.47;5050659;28;20048;-69
2024/01/10 00:47:12;;;;;;;3.13;1.00;;;;;;;3.39;35.14;103261.53;5049941;28;20120;-69
2024/01/10 00:49:38;;;;;;;3.07;1.80;;;;;;;3.08;36.01;103256.22;5049926;28;20020;-69
2024/01/10 00:52:03;;;;;;;4.80;1.60;;;;;;;3.76;35.06;103262.78;5051708;28;20021;-69
2024/01/10 00:54:29;;;;;;;2.47;1.10;;;;;;;2.68;36.31;103257.34;5051630;28;20040;-69
2024/01/10 00:56:55;;;;;;;2.77;1.50;;;;;;;3.15;36.18;103251.53;5052188;28;20017;-70
2024/01/10 00:59:20;;;;;;;0.70;0.70;;;;;;;3.19;35.61;103252.63;5050854;28;20476;-69
2024/01/10 01:01:45;;;;;;;4.17;2.07;;;;;;;3.34;35.60;103244.88;5050963;28;20033;-69
2024/01/10 01:04:11;;;;;;;3.57;1.10;;;;;;;3.36;36.08;103236.38;5050681;28;20124;-69
2024/01/10 01:06:36;;;;;;;8.47;1.60;;;;;;;3.66;35.23;103246.72;5050157;28;20052;-69
2024/01/10 01:09:02;;;;;;;1.50;1.30;;;;;;;3.45;35.59;103246.38;5049526;28;20059;-69
2024/01/10 01:11:27;;;;;;;1.80;1.27;;;;;;;3.42;35.98;103234.97;5050682;28;20550;-69
2024/01/10 01:13:52;;;;;;;1.97;1.30;;;;;;;4.69;33.94;103227.28;5051376;28;20041;-69
2024/01/10 01:16:18;;;;;;;3.83;1.57;;;;;;;3.76;34.85;103235.19;5050818;28;20024;-70
2024/01/10 01:18:45;;;;;;;1.90;1.23;;;;;;;3.76;35.40;103232.59;5051147;28;20123;-69
2024/01/10 01:21:11;;;;;;;3.67;1.67;;;;;;;3.76;34.77;103232.59;5052086;28;20074;-69
2024/01/10 01:23:36;;;;;;;2.77;1.60;;;;;;;3.63;35.27;103245.66;5050502;28;20310;-70
2024/01/10 01:26:03;;;;;;;3.60;1.27;;;;;;;3.48;35.50;103236.22;5050131;28;20736;-70
2024/01/10 01:28:32;;;;;;;2.10;1.90;;;;;;;3.47;35.64;103234.41;5051089;28;20484;-69
2024/01/10 01:30:57;;;;;;;5.57;1.40;;;;;;;4.11;34.67;103225.94;5049544;28;20275;-69
2024/01/10 01:33:23;;;;;;;1.63;1.53;;;;;;;3.76;35.28;103230.00;5051232;28;20302;-69
2024/01/10 01:35:48;;;;;;;1.93;0.93;;;;;;;3.86;34.89;103237.50;5049440;28;20167;-70
2024/01/10 01:38:13;;;;;;;3.00;1.40;;;;;;;3.72;35.40;103236.72;5049041;28;20109;-69
2024/01/10 01:40:39;;;;;;;1.80;1.10;;;;;;;3.16;36.31;103237.81;5049764;28;20067;-70
2024/01/10 01:43:21;;;;;;;2.10;1.30;;;;;;;4.11;36.12;103223.34;5051182;28;20484;-69
2024/01/10 01:45:49;;;;;;;;;;;;;;;4.34;35.29;103234.03;5048320;28;20493;-70
2024/01/10 01:48:15;;;;;;;2.87;1.57;;;;;;;3.49;35.87;103237.09;5050852;28;19964;-70
2024/01/10 01:50:41;;;;;;;2.57;1.17;;;;;;;3.61;35.40;103221.38;5050790;28;20670;-69
2024/01/10 01:53:06;;;;;;;2.60;1.03;;;;;;;3.31;35.92;103231.75;5045845;28;20465;-70
2024/01/10 01:55:32;;;;;;;2.07;1.30;;;;;;;3.44;35.90;103239.41;5038492;28;20033;-70
2024/01/10 01:57:57;;;;;;;2.33;1.97;;;;;;;3.05;36.65;103241.47;5048714;28;20480;-70
2024/01/10 02:00:22;;;;;;;7.03;1.73;;;;;;;3.54;35.47;103236.56;5049479;28;20116;-70
2024/01/10 02:02:48;;;;;;;3.17;1.83;;;;;;;2.99;37.59;103233.34;5049529;28;20332;-70
2024/01/10 02:05:15;;;;;;;1.87;1.23;;;;;;;4.22;35.68;103224.81;5049996;28;20025;-69
2024/01/10 02:07:40;;;;;;;4.63;1.33;;;;;;;3.37;35.88;103232.13;5048912;28;20029;-69
2024/01/10 02:10:06;;;;;;;2.17;1.37;;;;;;;3.09;36.45;103235.69;5049765;28;20827;-70
2024/01/10 02:12:32;;;;;;;3.33;1.73;;;;;;;3.68;35.73;103227.00;5048251;28;20029;-69
2024/01/10 02:14:57;;;;;;;6.43;2.07;;;;;;;4.41;34.40;103231.00;5048879;28;20632;-70
2024/01/10 02:17:23;;;;;;;2.37;1.53;;;;;;;3.71;35.29;103223.72;5050268;28;20037;-69
2024/01/10 02:19:48;;;;;;;4.90;1.87;;;;;;;3.65;36.05;103218.19;5048196;28;20033;-69
2024/01/10 02:22:13;;;;;;;3.37;1.80;;;;;;;2.96;36.69;103234.03;5050841;28;20112;-69
2024/01/10 02:24:39;;;;;;;2.90;1.47;;;;;;;2.82;36.78;103225.47;5048379;28;20131;-70
2024/01/10 02:27:05;;;;;;;3.00;1.43;;;;;;;3.56;35.61;103224.59;5048515;28;20045;-69
2024/01/10 02:29:31;;;;;;;2.30;1.33;;;;;;;3.02;36.22;103223.16;5044969;28;20489;-70
2024/01/10 02:31:56;;;;;;;2.20;1.23;;;;;;;3.99;35.28;103220.94;5045396;28;20036;-70
2024/01/10 02:34:22;;;;;;;5.10;2.07;;;;;;;3.76;35.39;103211.91;5047889;28;20373;-70
2024/01/10 02:36:47;;;;;;;3.37;1.37;;;;;;;3.78;35.14;103210.31;5049942;28;20033;-70
2024/01/10 02:39:12;;;;;;;2.97;1.53;;;;;;;3.93;34.82;103220.63;5042659;28;20076;-70
2024/01/10 02:41:38;;;;;;;2.00;1.20;;;;;;;4.97;33.68;103210.56;5039440;28;20098;-70
2024/01/10 02:44:03;;;;;;;2.53;1.60;;;;;;;4.46;34.41;103198.44;5045339;28;20029;-70
2024/01/10 02:46:29;;;;;;;2.27;1.40;;;;;;;3.90;34.76;103205.81;5030099;28;20053;-70
2024/01/10 02:48:57;;;;;;;2.03;1.53;;;;;;;3.63;35.50;103199.09;5042303;28;20246;-70
2024/01/10 02:51:24;;;;;;;1.93;1.50;;;;;;;4.13;35.50;103197.53;5048426;28;20275;-70
2024/01/10 02:53:50;;;;;;;6.20;2.13;;;;;;;4.43;35.13;103197.41;5048398;28;20279;-70
2024/01/10 02:56:15;;;;;;;2.47;1.53;;;;;;;4.28;34.86;103194.88;5047682;28;20291;-70
2024/01/10 02:58:40;;;;;;;2.33;1.53;;;;;;;4.18;35.48;103194.38;5043357;28;20029;-70
2024/01/10 03:01:06;;;;;;;2.40;1.53;;;;;;;4.33;35.82;103202.09;5047740;28;20033;-69
2024/01/10 03:03:31;;;;;;;2.33;1.57;;;;;;;4.16;36.00;103193.41;5048428;28;20051;-69
2024/01/10 03:05:57;;;;;;;2.27;1.47;;;;;;;4.17;35.55;103197.75;5048807;28;20072;-69
2024/01/10 03:08:22;;;;;;;2.17;1.43;;;;;;;4.63;35.05;103190.66;5048721;28;20037;-70
2024/01/10 03:10:47;;;;;;;3.20;1.40;;;;;;;3.54;36.62;103195.19;5049294;28;20217;-70
2024/01/10 03:13:13;;;;;;;4.00;1.70;;;;;;;2.74;38.36;103205.16;5048842;28;20535;-70
2024/01/10 03:15:38;;;;;;;2.77;1.50;;;;;;;2.77;38.09;103198.47;5052971;28;20460;-70
2024/01/10 03:18:04;;;;;;;2.33;1.43;;;;;;;3.48;36.92;103181.91;5052572;28;20115;-70
2024/01/10 03:20:30;;;;;;;2.67;1.77;;;;;;;3.60;37.55;103179.13;5052033;28;20036;-71
2024/01/10 03:22:55;;;;;;;2.63;1.80;;;;;;;3.80;36.44;103182.81;5052096;28;20036;-70
2024/01/10 03:25:20;;;;;;;4.23;1.70;;;;;;;3.85;36.82;103176.19;5053947;28;20037;-71
2024/01/10 03:27:46;;;;;;;5.37;2.33;;;;;;;3.50;37.86;103176.81;5052983;28;20489;-70
2024/01/10 03:30:12;;;;;;;3.53;1.50;;;;;;;3.36;37.37;103189.84;5048471;28;20511;-70
2024/01/10 03:32:37;;;;;;;6.63;2.63;;;;;;;3.14;38.38;103187.72;5051255;28;20059;-70
2024/01/10 03:35:03;;;;;;;1.87;1.50;;;;;;;3.59;37.03;103179.03;5053745;28;20055;-70
2024/01/10 03:37:29;;;;;;;3.00;2.00;;;;;;;2.82;38.99;103184.13;5051268;28;20017;-70
2024/01/10 03:39:54;;;;;;;5.03;1.97;;;;;;;3.11;38.22;103177.19;5051868;28;20643;-70
2024/01/10 03:42:20;;;;;;;3.77;1.83;;;;;;;2.77;38.88;103171.75;5052496;28;20029;-69
2024/01/10 03:44:45;;;;;;;3.87;2.23;;;;;;;3.06;37.74;103183.78;5052142;28;20403;-69
2024/01/10 03:47:10;;;;;;;2.57;1.93;;;;;;;3.26;37.98;103176.31;5053613;28;20094;-70
2024/01/10 03:49:36;;;;;;;3.07;1.83;;;;;;;3.11;37.84;103177.19;5051056;28;20041;-70
2024/01/10 03:52:01;;;;;;;1.50;0.80;;;;;;;2.43;39.20;103178.38;5052700;28;20033;-70
2024/01/10 03:54:26;;;;;;;6.90;2.27;;;;;;;3.13;38.21;103180.78;5053268;28;20047;-70
2024/01/10 03:56:52;;;;;;;3.20;1.50;;;;;;;2.46;39.13;103175.97;5050698;28;20027;-70
2024/01/10 03:59:17;;;;;;;5.20;2.47;;;;;;;2.73;38.70;103170.66;5050940;28;20032;-70
2024/01/10 04:01:43;;;;;;;3.40;2.20;;;;;;;3.04;38.74;103159.56;5052800;28;20033;-70
2024/01/10 04:04:08;;;;;;;5.93;2.73;;;;;;;3.14;38.81;103161.88;5051984;28;20029;-70
2024/01/10 04:06:34;;;;;;;2.90;1.83;;;;;;;2.32;40.12;103158.72;5051755;28;20353;-70
2024/01/10 04:09:00;;;;;;;2.53;1.47;;;;;;;3.11;39.17;103156.53;5048258;28;20065;-70
2024/01/10 04:11:25;;;;;;;3.50;2.13;;;;;;;2.71;40.00;103160.25;5031744;28;20184;-71
2024/01/10 04:13:50;;;;;;;5.83;2.70;;;;;;;3.30;38.68;103148.13;5034656;28;20034;-70
2024/01/10 04:16:16;;;;;;;2.37;1.67;;;;;;;3.33;38.31;103143.13;5053158;28;20025;-70
2024/01/10 04:18:41;;;;;;;6.83;2.23;;;;;;;3.58;37.83;103136.75;5050255;28;20522;-71
2024/01/10 04:21:07;;;;;;;4.70;2.13;;;;;;;3.43;38.07;103138.50;5031790;28;20041;-71
2024/01/10 04:23:33;;;;;;;2.47;1.50;;;;;;;3.10;38.11;103134.06;5038574;28;20583;-70
2024/01/10 04:25:59;;;;;;;1.83;1.63;;;;;;;2.91;38.45;103139.84;5050994;28;20029;-70
2024/01/10 04:28:24;;;;;;;4.00;2.40;;;;;;;2.33;39.81;103150.19;5052618;28;20319;-70
2024/01/10 04:30:50;;;;;;;3.77;2.17;;;;;;;3.12;38.40;103132.47;5051788;28;20439;-70
2024/01/10 04:33:15;;;;;;;1.70;1.30;;;;;;;2.75;38.58;103140.66;5052189;28;20112;-70
2024/01/10 04:35:40;;;;;;;5.17;2.07;;;;;;;2.46;39.67;103139.81;5052414;28;20048;-70
2024/01/10 04:38:05;;;;;;;1.83;1.70;;;;;;;2.57;39.29;103135.31;5047769;28;20025;-70
2024/01/10 04:40:32;;;;;;;3.17;1.50;;;;;;;3.11;38.09;103130.69;5044958;28;20437;-71
2024/01/10 04:42:57;;;;;;;4.03;2.10;;;;;;;3.60;37.41;103123.91;5051152;28;20036;-70
2024/01/10 04:45:22;;;;;;;4.97;2.17;;;;;;;3.31;37.98;103129.25;5050960;28;20349;-71
2024/01/10 04:47:48;;;;;;;2.73;1.97;;;;;;;3.20;37.76;103126.03;5051095;28;20036;-70
2024/01/10 04:50:13;;;;;;;4.13;1.70;;;;;;;3.62;37.31;103130.06;5052262;28;20469;-71
2024/01/10 04:52:38;;;;;;;2.87;1.57;;;;;;;2.81;38.34;103141.00;5051646;28;20040;-70
2024/01/10 04:55:05;;;;;;;2.77;2.17;;;;;;;3.38;37.66;103133.94;5048389;28;20045;-70
2024/01/10 04:57:31;;;;;;;6.67;2.20;;;;;;;3.98;36.58;103140.63;5051921;28;20083;-71
2024/01/10 04:59:57;;;;;;;5.33;2.60;;;;;;;3.49;37.66;103134.56;5050700;28;20283;-70
2024/01/10 05:02:22;;;;;;;3.33;2.47;;;;;;;3.82;36.97;103133.72;5050948;28;20060;-71
2024/01/10 05:04:49;;;;;;;2.30;1.90;;;;;;;4.21;36.47;103139.28;5050392;28;20033;-71
2024/01/10 05:07:14;;;;;;;3.70;2.70;;;;;;;3.65;36.81;103140.56;5050220;28;20028;-71
2024/01/10 05:09:39;;;;;;;3.03;1.70;;;;;;;3.96;36.54;103143.16;5049262;28;20314;-70
2024/01/10 05:12:05;;;;;;;2.63;1.77;;;;;;;3.67;36.37;103133.81;5050479;28;20029;-70
2024/01/10 05:14:30;;;;;;;3.17;1.77;;;;;;;3.17;36.66;103136.22;5050180;28;20033;-70
2024/01/10 05:16:56;;;;;;;2.97;2.27;;;;;;;3.59;37.21;103132.50;5049928;28;20044;-70
2024/01/10 05:19:21;;;;;;;5.30;2.20;;;;;;;3.88;36.18;103129.78;5050073;28;20493;-70
2024/01/10 05:21:47;;;;;;;3.07;2.30;;;;;;;3.69;36.78;103121.84;5050631;28;20484;-70
2024/01/10 05:24:12;;;;;;;4.37;2.47;;;;;;;3.68;36.91;103118.38;5050379;28;20060;-70
2024/01/10 05:26:38;;;;;;;3.47;1.70;;;;;;;3.73;36.46;103118.59;5051144;28;20059;-70
2024/01/10 05:29:03;;;;;;;3.03;2.00;;;;;;;2.43;38.41;103129.31;5049706;28;20141;-71
2024/01/10 05:31:29;;;;;;;4.70;2.80;;;;;;;3.22;37.68;103124.41;5049701;28;20063;-70
2024/01/10 05:33:54;;;;;;;2.70;2.33;;;;;;;3.35;37.31;103125.13;5050305;28;20063;-70
2024/01/10 05:36:23;;;;;;;2.67;1.50;;;;;;;3.25;37.25;103125.41;5050513;28;20275;-71
2024/01/10 05:38:49;;;;;;;2.77;1.13;;;;;;;2.47;38.63;103127.78;5050598;28;20349;-70
2024/01/10 05:41:14;;;;;;;2.20;1.60;;;;;;;3.09;37.73;103126.22;5049858;28;20632;-70
2024/01/10 05:43:40;;;;;;;10.83;2.30;;;;;;;3.23;37.36;103126.22;5048658;28;20033;-71
2024/01/10 05:46:06;;;;;;;2.37;2.07;;;;;;;3.86;36.39;103123.66;5051179;28;20045;-70
2024/01/10 05:48:32;;;;;;;4.47;2.80;;;;;;;4.18;35.43;103123.59;5049173;28;20620;-71
2024/01/10 05:50:57;;;;;;;2.40;2.20;;;;;;;3.69;36.05;103116.66;5050172;28;20500;-71
2024/01/10 05:53:24;;;;;;;5.07;2.77;;;;;;;3.63;36.95;103109.44;5049742;28;20028;-71
2024/01/10 05:55:50;;;;;;;4.90;2.30;;;;;;;3.23;37.29;103115.88;5050318;28;20104;-71
2024/01/10 05:58:16;;;;;;;3.33;1.67;;;;;;;2.76;37.17;103126.97;5048706;28;20286;-71
2024/01/10 06:00:41;;;;;;;5.03;2.40;;;;;;;3.31;37.01;103118.00;5054595;28;20275;-71
2024/01/10 06:03:07;;;;;;;6.27;2.20;;;;;;;2.98;36.81;103123.94;5053933;28;20029;-71
2024/01/10 06:05:32;;;;;;;1.60;1.20;;;;;;;3.28;36.34;103128.16;5048369;28;20033;-71
2024/01/10 06:07:58;;;;;;;4.17;1.90;;;;;;;3.83;36.10;103126.06;5049129;28;20035;-71
2024/01/10 06:10:23;;;;;;;7.73;3.37;;;;;;;4.16;35.25;103126.13;5050874;28;20130;-71
2024/01/10 06:12:49;;;;;;;13.17;3.17;;;;;;;3.35;36.99;103119.94;5048592;28;20036;-71
2024/01/10 06:15:14;;;;;;;10.77;2.53;;;;;;;3.22;37.34;103127.00;5049483;28;20501;-71
2024/01/10 06:17:40;;;;;;;5.33;2.47;;;;;;;3.16;36.80;103118.91;5050322;28;20481;-71
2024/01/10 06:20:06;;;;;;;6.53;2.87;;;;;;;2.93;37.70;103115.00;5048073;28;20036;-71
2024/01/10 06:22:32;;;;;;;6.73;2.93;;;;;;;3.35;36.82;103115.69;5044341;28;20501;-71
2024/01/10 06:24:58;;;;;;;5.23;2.27;;;;;;;3.28;36.58;103117.81;5046580;28;20369;-71
2024/01/10 06:27:23;;;;;;;4.07;2.90;;;;;;;2.58;37.67;103118.09;5049208;28;20021;-71
2024/01/10 06:29:48;;;;;;;5.10;3.07;;;;;;;3.48;36.61;103100.84;5050012;28;20470;-71
2024/01/10 06:32:17;;;;;;;6.57;2.10;;;;;;;2.51;37.75;103107.44;5049279;28;20040;-71
2024/01/10 06:34:42;;;;;;;3.93;2.33;;;;;;;2.76;37.67;103116.63;5048761;28;20028;-71
2024/01/10 06:37:08;;;;;;;5.40;2.30;;;;;;;2.58;37.83;103107.78;5048667;28;20367;-71
2024/01/10 06:39:33;;;;;;;3.40;2.00;;;;;;;2.95;37.84;103120.25;5047852;28;20025;-71
2024/01/10 06:41:59;;;;;;;7.17;2.50;;;;;;;2.95;37.52;103112.50;5048649;28;20441;-71
2024/01/10 06:44:24;;;;;;;5.80;2.20;;;;;;;2.74;37.77;103113.03;5048621;28;20133;-71
2024/01/10 06:46:51;;;;;;;9.87;2.53;;;;;;;2.58;38.25;103115.53;5044253;28;20052;-71
2024/01/10 06:49:16;;;;;;;5.07;2.87;;;;;;;2.61;37.04;103126.03;5028586;28;20057;-71
2024/01/10 06:51:41;;;;;;;7.93;2.97;;;;;;;3.04;38.15;103118.22;5040800;28;20413;-71
2024/01/10 06:54:07;;;;;;;3.07;2.20;;;;;;;3.40;36.89;103123.69;5049655;28;20527;-71
2024/01/10 06:56:33;;;;;;;4.03;2.53;;;;;;;3.76;36.79;103129.13;5047060;28;20384;-71
2024/01/10 06:59:00;;;;;;;5.63;2.87;;;;;;;3.41;36.37;103125.47;5050041;28;20059;-71
2024/01/10 07:01:26;;;;;;;6.77;3.00;;;;;;;3.20;36.62;103126.03;5047785;28;20288;-71
2024/01/10 07:03:53;;;;;;;3.53;2.83;;;;;;;3.51;36.41;103130.34;5049485;28;20350;-71
2024/01/10 07:06:18;;;;;;;9.00;2.20;;;;;;;3.83;35.77;103126.06;5048391;28;20294;-71
2024/01/10 07:08:47;;;;;;;3.17;1.90;;;;;;;3.94;36.09;103133.50;5048190;28;20271;-71
2024/01/10 07:11:12;;;;;;;3.73;2.03;;;;;;;3.42;36.66;103132.44;5048212;28;20029;-72
2024/01/10 07:13:37;;;;;;;3.87;2.07;;;;;;;3.40;36.73;103127.16;5048089;28;20272;-71
2024/01/10 07:16:03;;;;;;;6.37;2.80;;;;;;;3.26;36.94;103129.78;5049215;28;20024;-71
2024/01/10 07:18:30;;;;;;;3.80;2.00;;;;;;;2.72;37.83;103130.16;5048153;28;20147;-71
2024/01/10 07:20:55;;;;;;;2.60;2.20;;;;;;;2.63;37.93;103134.78;5064769;28;20048;-71
2024/01/10 07:23:22;;;;;;;6.40;3.23;;;;;;;2.51;38.20;103130.66;5047357;28;20279;-71
2024/01/10 07:25:48;;;;;;;7.43;3.00;;;;;;;2.34;38.00;103131.34;5047131;28;20028;-71
2024/01/10 07:28:13;;;;;;;18.87;4.13;;;;;;;2.78;37.96;103146.00;5048502;28;20330;-72
2024/01/10 07:30:39;;;;;;;4.67;2.33;;;;;;;2.73;37.50;103144.84;5048297;28;20366;-72
2024/01/10 07:33:04;;;;;;;3.03;2.10;;;;;;;2.93;37.27;103139.97;5048342;28;20120;-72
2024/01/10 07:35:30;;;;;;;2.67;1.73;;;;;;;3.03;37.01;103147.44;5048691;28;20489;-72
2024/01/10 07:37:55;;;;;;;4.70;2.67;;;;;;;3.11;37.06;103153.94;5049525;28;20032;-72
2024/01/10 07:40:22;;;;;;;3.97;2.67;;;;;;;2.37;38.31;103162.50;5048298;28;20029;-72
2024/01/10 07:42:48;;;;;;;15.10;2.77;;;;;;;3.18;37.05;103152.59;5046716;28;20028;-72
2024/01/10 07:45:13;;;;;;;4.07;2.47;;;;;;;2.52;38.25;103142.75;5048121;28;20802;-72
2024/01/10 07:47:38;;;;;;;2.47;2.23;;;;;;;2.81;37.21;103146.19;5049110;28;20061;-72
2024/01/10 07:50:08;;;;;;;4.10;2.07;;;;;;;2.44;37.71;103149.16;5048523;28;20481;-72
2024/01/10 07:52:35;;;;;;;7.10;2.80;;;;;;;3.11;37.11;103147.91;5044738;28;20465;-72
2024/01/10 07:55:00;;;;;;;5.93;3.03;;;;;;;3.20;37.15;103136.38;5048036;28;20282;-72
2024/01/10 07:57:26;;;;;;;3.60;1.80;;;;;;;2.89;37.13;103150.09;5048863;28;20267;-72
2024/01/10 07:59:55;;;;;;;2.60;2.33;;;;;;;2.64;37.67;103157.22;5048509;28;20094;-72
2024/01/10 08:02:20;;;;;;;3.43;2.20;;;;;;;2.85;36.88;103148.13;5050739;28;20386;-72
2024/01/10 08:04:45;;;;;;;6.93;3.30;;;;;;;2.01;38.46;103156.84;5051399;28;20361;-72
2024/01/10 08:07:11;;;;;;;5.83;2.23;;;;;;;3.17;37.10;103162.06;5051736;28;20056;-72
2024/01/10 08:09:37;;;;;;;4.00;2.43;;;;;;;3.10;37.29;103146.97;5048123;28;20028;-72
2024/01/10 08:12:03;;;;;;;5.37;2.13;;;;;;;3.49;36.31;103155.25;5046445;28;20033;-72
2024/01/10 08:14:29;;;;;;;4.97;2.80;;;;;;;3.33;36.41;103160.34;5048911;28;20557;-72
2024/01/10 08:16:57;;;;;;;4.07;2.07;;;;;;;2.85;37.00;103163.63;5047886;28;20367;-72
2024/01/10 08:19:23;;;;;;;5.33;2.77;;;;;;;2.15;37.99;103166.31;5045436;28;20511;-72
2024/01/10 08:21:50;;;;;;;9.77;3.07;;;;;;;2.20;37.92;103164.03;5052916;28;20283;-72
2024/01/10 08:24:15;;;;;;;3.80;2.50;;;;;;;2.22;37.98;103161.56;5052566;28;20571;-72
2024/01/10 08:26:40;;;;;;;3.90;2.30;;;;;;;2.51;37.75;103163.31;5050497;28;20282;-72
2024/01/10 08:29:06;;;;;;;5.57;2.47;;;;;;;2.17;37.90;103159.59;5051684;28;20029;-72
2024/01/10 08:31:32;;;;;;;7.20;3.23;;;;;;;1.93;38.84;103156.34;5051597;28;20049;-72
2024/01/10 08:33:57;;;;;;;13.20;1.87;;;;;;;2.63;37.18;103168.34;5047370;28;20064;-72
2024/01/10 08:36:24;;;;;;;7.17;2.00;;;;;;;1.85;37.98;103154.97;5036188;28;20060;-72
2024/01/10 08:38:50;;;;;;;6.17;3.13;;;;;;;2.74;37.52;103145.75;5051210;28;20536;-72
2024/01/10 08:41:15;;;;;;;6.60;3.23;;;;;;;2.79;36.54;103149.47;5051181;28;20315;-72
2024/01/10 08:43:41;;;;;;;4.87;2.10;;;;;;;2.96;36.90;103155.63;5052027;28;20306;-72
2024/01/10 08:46:10;;;;;;;7.30;2.23;;;;;;;2.06;37.23;103139.06;5049946;28;20123;-72
2024/01/10 08:48:36;;;;;;;5.00;3.33;;;;;;;2.25;37.28;103136.81;5049493;28;20032;-72
2024/01/10 08:51:02;;;;;;;4.20;2.50;;;;;;;2.61;37.18;103141.53;5050820;28;20280;-72
2024/01/10 08:53:27;;;;;;;11.10;3.00;;;;;;;2.78;35.95;103138.25;5051108;28;20087;-72
2024/01/10 08:55:52;;;;;;;4.87;2.97;;;;;;;2.48;36.79;103130.47;5050943;28;20115;-73
2024/01/10 08:58:18;;;;;;;4.17;2.23;;;;;;;2.43;37.15;103121.56;5050482;28;20021;-72
2024/01/10 09:00:43;;;;;;;5.97;2.87;;;;;;;2.91;36.12;103131.22;5047895;28;20025;-72
2024/01/10 09:03:08;;;;;;;9.73;2.67;;;;;;;3.81;34.18;103130.25;5046508;28;20035;-72
2024/01/10 09:05:34;;;;;;;9.43;2.50;;;;;;;2.25;35.88;103121.31;5051683;28;20036;-72
2024/01/10 09:08:00;;;;;;;4.83;2.40;;;;;;;2.46;35.99;103126.00;5051383;28;20392;-72
2024/01/10 09:10:29;;;;;;;12.17;2.80;;;;;;;2.45;36.38;103111.34;5050030;28;20016;-72
2024/01/10 09:12:54;;;;;;;7.00;2.87;;;;;;;2.83;35.85;103117.84;5049345;28;20029;-72
2024/01/10 09:15:20;;;;;;;3.60;2.30;;;;;;;3.61;34.66;103112.75;5050446;28;20267;-72
2024/01/10 09:17:45;;;;;;;7.27;2.33;;;;;;;3.04;34.46;103113.06;5051550;28;20508;-72
2024/01/10 09:20:12;;;;;;;5.30;2.03;;;;;;;2.72;35.33;103130.16;5050370;28;20515;-72
2024/01/10 09:22:38;;;;;;;7.33;2.70;;;;;;;3.50;33.64;103131.19;5049152;28;20522;-72
2024/01/10 09:25:05;;;;;;;3.50;2.17;;;;;;;3.26;34.77;103130.66;5038741;28;20267;-72
2024/01/10 09:27:34;;;;;;;16.23;3.17;;;;;;;2.57;35.44;103129.22;5049999;28;20647;-71
2024/01/10 09:30:03;;;;;;;3.00;1.40;;;;;;;2.17;35.21;103133.78;5051109;28;20283;-72
2024/01/10 09:32:29;;;;;;;6.10;2.63;;;;;;;2.46;34.76;103129.50;5051418;28;20279;-72
2024/01/10 09:34:55;;;;;;;9.83;3.40;;;;;;;2.77;34.34;103133.00;5049937;28;20280;-72
2024/01/10 09:37:21;;;;;;;5.47;2.73;;;;;;;3.85;33.27;103129.63;5051259;28;20355;-72
2024/01/10 09:39:46;;;;;;;3.07;2.70;;;;;;;3.27;33.62;103126.38;5051186;28;20362;-72
2024/01/10 09:42:14;;;;;;;5.93;2.37;;;;;;;2.85;33.92;103131.75;5051006;28;20055;-72
2024/01/10 09:44:40;;;;;;;7.23;3.27;;;;;;;3.08;34.05;103151.19;5049275;28;20131;-72
2024/01/10 09:47:06;;;;;;;4.73;2.97;;;;;;;3.21;33.43;103133.00;5050134;28;20382;-72
2024/01/10 09:49:33;;;;;;;4.97;2.07;;;;;;;3.12;33.54;103141.91;5050163;28;20365;-72
2024/01/10 09:52:00;;;;;;;6.60;2.77;;;;;;;3.18;33.43;103132.81;5049938;28;20021;-72
2024/01/10 09:54:29;;;;;;;5.03;3.33;;;;;;;2.96;34.09;103145.31;5050712;28;20272;-72
2024/01/10 09:56:55;;;;;;;3.83;1.73;;;;;;;3.40;33.39;103131.44;5045817;28;20302;-71
2024/01/10 09:59:21;;;;;;;5.23;2.53;;;;;;;2.94;33.79;103152.06;5046290;28;20328;-72
2024/01/10 10:01:46;;;;;;;6.83;3.10;;;;;;;4.01;32.27;103130.44;5046761;28;20287;-72
2024/01/10 10:04:12;;;;;;;8.07;3.03;;;;;;;3.74;33.28;103129.03;5050263;28;20029;-72
2024/01/10 10:06:38;;;;;;;12.23;2.80;;;;;;;4.56;32.04;103125.59;5049164;28;20033;-72
2024/01/10 10:09:04;;;;;;;4.07;2.17;;;;;;;3.48;32.29;103132.78;5050633;28;20279;-72
2024/01/10 10:11:29;;;;;;;4.93;3.20;;;;;;;3.17;32.61;103136.22;5049813;28;20072;-72
2024/01/10 10:13:55;;;;;;;5.63;2.97;;;;;;;3.89;32.07;103125.53;5050673;28;20028;-71
2024/01/10 10:16:25;;;;;;;7.77;2.33;;;;;;;4.43;31.31;103128.34;5049791;28;20322;-72
2024/01/10 10:18:57;;;;;;;4.30;2.17;;;;;;;4.11;32.12;103124.97;5048288;28;20070;-72
2024/01/10 10:21:25;;;;;;;3.40;2.50;;;;;;;3.88;32.08;103118.56;5049418;28;20268;-72
2024/01/10 10:23:59;;;;;;;9.53;3.03;;;;;;;3.68;32.14;103123.53;5049372;28;20775;-72
2024/01/10 10:26:26;;;;;;;7.40;3.20;;;;;;;3.84;31.68;103116.59;5049120;28;20337;-72
2024/01/10 10:28:52;;;;;;;5.43;2.73;;;;;;;4.35;31.07;103121.88;5048767;28;20305;-72
2024/01/10 10:31:19;;;;;;;4.73;2.67;;;;;;;4.80;30.00;103117.28;5048535;28;20283;-72
2024/01/10 10:33:45;;;;;;;4.40;2.33;;;;;;;4.83;29.96;103112.25;5045435;28;20029;-72
2024/01/10 10:36:10;;;;;;;7.00;3.10;;;;;;;5.16;30.12;103112.13;5047604;28;20279;-72
2024/01/10 10:38:37;;;;;;;7.27;3.30;;;;;;;5.70;29.45;103108.59;5047912;28;20290;-72
2024/01/10 10:41:07;;;;;;;8.00;2.10;;;;;;;5.80;28.75;103112.53;5049025;28;20036;-72
2024/01/10 10:43:37;;;;;;;8.60;2.87;;;;;;;6.64;28.42;103111.94;5048905;28;20298;-72
2024/01/10 10:46:12;;;;;;;5.53;2.27;;;;;;;7.57;27.36;103107.06;5047482;28;20320;-72
2024/01/10 10:48:38;;;;;;;7.77;2.63;;;;;;;7.15;27.20;103101.91;5048870;28;20367;-73
2024/01/10 10:51:06;;;;;;;6.07;3.50;;;;;;;7.80;26.10;103107.03;5049002;28;20048;-72
2024/01/10 10:53:34;;;;;;;7.83;3.23;;;;;;;8.45;25.91;103096.41;5047918;28;20029;-72
2024/01/10 10:56:00;;;;;;;7.60;3.33;;;;;;;8.46;25.66;103098.16;5048600;28;20082;-72
2024/01/10 10:58:27;;;;;;;6.83;3.27;;;;;;;8.68;25.21;103110.22;5048153;28;20078;-72
2024/01/10 11:00:54;;;;;;;6.50;2.87;;;;;;;7.77;25.62;103106.94;5046335;28;20039;-72
2024/01/10 11:03:21;;;;;;;8.03;2.93;;;;;;;7.78;25.81;103103.50;5045652;28;20485;-72
2024/01/10 11:05:47;;;;;;;5.20;3.03;;;;;;;7.21;27.02;103102.19;5043171;28;20029;-71
2024/01/10 11:08:16;;;;;;;6.73;2.87;;;;;;;7.66;26.67;103110.84;5048781;28;20021;-72
2024/01/10 11:10:43;;;;;;;11.43;3.07;;;;;;;8.02;25.82;103094.81;5044712;28;20030;-72
2024/01/10 11:13:50;;;;;;;5.37;2.57;;;;;;;7.78;25.40;103090.47;5055635;28;20060;-72
2024/01/10 11:16:33;;;;;;;8.63;3.57;;;;;;;7.17;26.69;103102.88;4977420;28;20031;-71
2024/01/10 11:19:14;;;;;;;3.95;2.40;;;;;;;7.29;26.29;103095.56;4971863;28;20080;-71
2024/01/10 11:21:45;;;;;;;4.30;2.07;;;;;;;6.16;28.50;103095.16;5016957;28;20147;-72
2024/01/10 11:24:14;;;;;;;4.83;2.60;;;;;;;7.30;26.98;103086.91;5034268;28;20033;-71
2024/01/10 11:26:40;;;;;;;7.20;3.07;;;;;;;8.21;25.64;103093.78;5047979;28;20029;-72
2024/01/10 11:29:06;;;;;;;4.30;2.67;;;;;;;7.89;26.13;103088.28;5047344;28;20473;-72